Time;durP1;ratioP1;P1;durP2;ratioP2;P2;SDS_P1;SDS_P2;PMS_P1;PMS_P2;Temp;Humidity;BMP_temperature;BMP_pressure;BME280_temperature;BME280_humidity;BME280_pressure;Samples;Min_cycle;Max_cycle;Signal;HPM_P1;HPM_P2
2022/03/22 00:01:48;;;;;;;35.28;8.50;;;;;;;2.93;51.10;101143.13;4874103;29;20051;-74
2022/03/22 00:04:14;;;;;;;20.25;8.35;;;;;;;2.93;51.42;101145.78;4872147;29;20044;-72
2022/03/22 00:06:41;;;;;;;20.88;8.90;;;;;;;2.90;51.39;101143.22;4859013;29;20046;-73
2022/03/22 00:09:07;;;;;;;29.27;8.43;;;;;;;2.90;51.81;101150.25;4880338;29;20531;-73
2022/03/22 00:11:33;;;;;;;18.02;9.13;;;;;;;2.91;51.57;101144.97;4875802;29;20048;-72
2022/03/22 00:13:57;;;;;;;27.73;10.00;;;;;;;2.95;51.37;101142.25;4856435;29;20057;-72
2022/03/22 00:16:22;;;;;;;26.90;8.98;;;;;;;2.96;51.89;101147.50;4870925;29;20105;-72
2022/03/22 00:18:47;;;;;;;25.67;9.57;;;;;;;2.93;51.96;101148.41;4871729;29;20048;-73
2022/03/22 00:21:12;;;;;;;32.85;9.77;;;;;;;2.88;51.97;101142.38;4845450;29;20041;-68
2022/03/22 00:23:37;;;;;;;21.25;8.52;;;;;;;2.83;52.49;101138.91;4863465;29;20055;-69
2022/03/22 00:26:03;;;;;;;29.08;11.10;;;;;;;2.80;52.57;101143.38;4867115;29;20064;-69
2022/03/22 00:28:28;;;;;;;19.73;9.95;;;;;;;2.76;52.96;101139.06;4874063;29;20055;-69
2022/03/22 00:30:53;;;;;;;19.17;8.55;;;;;;;2.79;51.49;101137.25;4869245;29;20051;-69
2022/03/22 00:33:18;;;;;;;17.77;7.55;;;;;;;2.80;51.68;101135.50;4871502;29;20043;-70
2022/03/22 00:35:43;;;;;;;23.88;8.70;;;;;;;2.75;52.09;101134.69;4869631;29;20087;-72
2022/03/22 00:38:12;;;;;;;18.95;8.48;;;;;;;2.74;52.64;101139.06;4871485;29;20052;-69
2022/03/22 00:40:37;;;;;;;19.23;9.00;;;;;;;2.71;52.21;101143.53;4870159;29;20036;-69
2022/03/22 00:43:02;;;;;;;23.50;9.30;;;;;;;2.74;52.08;101127.66;4870286;29;20086;-71
2022/03/22 00:45:32;;;;;;;17.13;8.77;;;;;;;2.74;52.52;101122.41;4869377;29;20099;-69
2022/03/22 00:47:58;;;;;;;24.17;7.60;;;;;;;2.68;52.21;101125.16;4866098;29;20176;-69
2022/03/22 00:50:27;;;;;;;28.23;9.20;;;;;;;2.69;52.36;101117.22;4855367;29;20078;-69
2022/03/22 00:52:52;;;;;;;27.33;8.60;;;;;;;2.62;52.54;101119.97;4867143;29;20131;-70
2022/03/22 00:55:16;;;;;;;22.52;8.23;;;;;;;2.65;52.28;101114.66;4870246;29;20131;-71
2022/03/22 00:57:42;;;;;;;22.15;8.90;;;;;;;2.66;52.29;101111.13;4857318;29;20048;-70
2022/03/22 01:00:10;;;;;;;20.25;8.27;;;;;;;2.67;52.02;101115.50;4869665;29;20049;-67
2022/03/22 01:02:38;;;;;;;16.65;7.28;;;;;;;2.72;51.95;101108.38;4872295;29;20051;-70
2022/03/22 01:05:06;;;;;;;21.33;8.10;;;;;;;2.72;52.19;101111.00;4852910;29;20627;-72
2022/03/22 01:07:33;;;;;;;15.20;7.93;;;;;;;2.73;52.40;101115.38;4849504;29;20116;-70
2022/03/22 01:09:58;;;;;;;15.18;7.55;;;;;;;2.75;51.74;101110.97;4868569;29;20044;-72
2022/03/22 01:12:23;;;;;;;14.18;6.45;;;;;;;2.77;50.75;101111.81;4871137;29;20052;-68
2022/03/22 01:14:47;;;;;;;18.50;8.02;;;;;;;2.79;51.07;101110.91;4870305;29;20035;-69
2022/03/22 01:17:12;;;;;;;27.35;8.57;;;;;;;2.78;51.23;101122.34;4868897;29;20411;-69
2022/03/22 01:19:38;;;;;;;21.63;8.73;;;;;;;2.78;52.12;101121.47;4868444;29;20039;-69
2022/03/22 01:22:03;;;;;;;21.23;8.82;;;;;;;2.77;52.22;101117.97;4870771;29;20400;-67
2022/03/22 01:24:28;;;;;;;22.15;8.43;;;;;;;2.77;52.31;101117.09;4863413;29;20420;-71
2022/03/22 01:26:53;;;;;;;18.05;8.35;;;;;;;2.71;52.33;101115.41;4866189;29;20391;-71
2022/03/22 01:29:18;;;;;;;25.25;8.95;;;;;;;2.66;53.07;101121.66;4868818;29;20130;-71
2022/03/22 01:31:44;;;;;;;22.98;8.82;;;;;;;2.60;52.95;101122.59;4873443;29;20040;-73
2022/03/22 01:34:09;;;;;;;18.80;8.68;;;;;;;2.54;53.24;101118.31;4870044;29;20047;-72
2022/03/22 01:36:34;;;;;;;23.65;9.35;;;;;;;2.51;53.77;101122.75;4868674;29;20567;-72
2022/03/22 01:38:59;;;;;;;18.25;7.70;;;;;;;2.47;54.30;101126.34;4869293;29;20499;-73
2022/03/22 01:41:24;;;;;;;16.70;8.45;;;;;;;2.43;53.68;101122.88;4868578;29;20035;-71
2022/03/22 01:43:49;;;;;;;17.88;7.55;;;;;;;2.44;53.25;101121.13;4868682;29;20107;-70
2022/03/22 01:46:15;;;;;;;18.13;7.18;;;;;;;2.42;53.26;101117.63;4870128;29;20375;-70
2022/03/22 01:48:40;;;;;;;18.73;7.70;;;;;;;2.43;52.85;101112.34;4871974;29;20049;-69
2022/03/22 01:51:05;;;;;;;17.35;9.18;;;;;;;2.43;53.06;101114.97;4869922;29;20052;-70
2022/03/22 01:53:35;;;;;;;15.55;8.63;;;;;;;2.41;53.62;101110.63;4870163;29;20146;-70
2022/03/22 01:56:00;;;;;;;19.35;8.82;;;;;;;2.39;54.41;101108.00;4871652;29;20165;-71
2022/03/22 01:58:25;;;;;;;24.00;8.73;;;;;;;2.36;53.70;101102.81;4854017;29;20095;-70
2022/03/22 02:05:51;;;;;;;17.73;8.68;;;;;;;2.33;53.43;101101.97;4872847;29;20123;-71
2022/03/22 02:06:20;;;;;;;17.40;7.93;;;;;;;2.28;53.47;101112.56;4867771;29;20052;-74
2022/03/22 02:08:44;;;;;;;16.10;7.50;;;;;;;2.23;53.73;101096.00;4884584;29;20086;-71
2022/03/22 02:11:09;;;;;;;20.20;9.00;;;;;;;2.21;53.05;101102.16;4883991;29;20081;-72
2022/03/22 02:13:34;;;;;;;18.77;7.82;;;;;;;2.19;53.86;101095.16;4881936;29;20040;-69
2022/03/22 02:16:03;;;;;;;22.77;8.20;;;;;;;2.18;54.18;101100.44;4877196;29;20064;-70
2022/03/22 02:18:28;;;;;;;20.08;8.55;;;;;;;2.17;54.00;101101.31;4852261;29;20041;-70
2022/03/22 02:20:54;;;;;;;14.35;7.35;;;;;;;2.11;53.82;101091.78;4871686;29;20558;-72
2022/03/22 02:23:20;;;;;;;15.68;7.93;;;;;;;2.08;53.42;101101.44;4861236;29;20388;-75
2022/03/22 02:25:49;;;;;;;19.48;8.20;;;;;;;2.00;53.60;101093.69;4833837;29;20496;-68
2022/03/22 02:28:14;;;;;;;22.30;9.40;;;;;;;2.00;53.65;101092.81;4841371;29;20048;-64
2022/03/22 02:30:39;;;;;;;22.30;8.40;;;;;;;1.92;53.36;101089.41;4843252;29;20105;-71
2022/03/22 02:33:04;;;;;;;21.85;9.15;;;;;;;1.83;53.48;101083.38;4853920;29;20727;-72
2022/03/22 02:35:30;;;;;;;20.13;8.43;;;;;;;1.80;53.83;101087.81;4862055;29;20079;-65
2022/03/22 02:37:55;;;;;;;18.33;9.68;;;;;;;1.74;53.97;101085.25;4864820;29;20145;-65
2022/03/22 02:40:20;;;;;;;20.80;8.27;;;;;;;1.74;53.97;101088.75;4864705;29;20139;-66
2022/03/22 02:42:50;;;;;;;22.45;8.15;;;;;;;1.77;54.06;101079.97;4859143;29;20528;-65
2022/03/22 02:45:17;;;;;;;20.48;8.88;;;;;;;1.79;53.62;101078.19;4856881;29;20052;-66
2022/03/22 02:47:42;;;;;;;20.70;8.73;;;;;;;1.75;53.62;101079.97;4850521;29;20048;-66
2022/03/22 02:50:08;;;;;;;22.20;8.18;;;;;;;1.76;53.64;101076.47;4858608;29;20393;-66
2022/03/22 02:52:33;;;;;;;17.73;8.38;;;;;;;1.72;53.68;101071.25;4864308;29;20049;-66
2022/03/22 02:54:58;;;;;;;19.45;7.80;;;;;;;1.71;53.69;101070.38;4866476;29;20045;-66
2022/03/22 02:57:23;;;;;;;25.60;8.20;;;;;;;1.67;53.73;101073.94;4864707;29;20115;-66
2022/03/22 02:59:48;;;;;;;12.57;7.05;;;;;;;1.69;53.93;101071.31;4856255;29;20500;-65
2022/03/22 03:02:12;;;;;;;20.13;8.20;;;;;;;1.67;54.24;101075.72;4846050;29;20053;-70
2022/03/22 03:04:37;;;;;;;16.95;8.43;;;;;;;1.64;54.01;101081.88;4848021;29;20052;-68
2022/03/22 03:07:02;;;;;;;16.45;8.70;;;;;;;1.68;54.22;101070.44;4848467;29;20124;-69
2022/03/22 03:09:27;;;;;;;27.05;8.70;;;;;;;1.65;54.25;101078.34;4859988;29;20044;-67
2022/03/22 03:11:51;;;;;;;16.23;7.22;;;;;;;1.64;53.94;101071.34;4852382;29;20044;-70
2022/03/22 03:16:59;;;;;;;13.23;7.13;;;;;;;1.58;54.36;101068.78;4860901;29;20045;-70
2022/03/22 03:19:24;;;;;;;26.48;7.93;;;;;;;1.55;54.09;101060.94;4874148;29;20036;-72
2022/03/22 03:21:49;;;;;;;17.13;7.38;;;;;;;1.55;54.23;101062.72;4883653;29;20051;-65
2022/03/22 03:24:15;;;;;;;17.17;7.40;;;;;;;1.55;54.16;101067.97;4857470;29;20528;-66
2022/03/22 03:26:40;;;;;;;31.48;9.27;;;;;;;1.52;53.94;101068.00;4861054;29;20520;-67
2022/03/22 03:29:05;;;;;;;17.35;7.07;;;;;;;1.56;53.81;101070.59;4849266;29;20052;-66
2022/03/22 03:31:30;;;;;;;13.60;7.72;;;;;;;1.58;54.00;101070.56;4844983;29;20052;-68
2022/03/22 03:33:55;;;;;;;16.00;7.60;;;;;;;1.58;53.62;101068.78;4861965;29;20044;-68
2022/03/22 03:36:22;;;;;;;22.17;8.27;;;;;;;1.57;53.59;101066.19;4858642;29;20850;-71
2022/03/22 03:38:46;;;;;;;24.77;8.05;;;;;;;1.54;53.87;101066.22;4858399;29;20056;-71
2022/03/22 03:43:57;;;;;;;17.00;8.10;;;;;;;1.53;54.11;101067.09;4844525;29;20048;-66
2022/03/22 03:49:06;;;;;;;17.65;8.07;;;;;;;1.80;53.78;101061.53;4844429;29;20049;-67
2022/03/22 03:51:31;;;;;;;23.55;7.93;;;;;;;2.03;53.63;101066.47;4842970;29;20049;-66
2022/03/22 03:53:57;;;;;;;16.33;7.97;;;;;;;2.23;53.18;101066.19;4843057;29;20104;-70
2022/03/22 03:56:22;;;;;;;18.58;8.02;;;;;;;2.38;52.21;101074.69;4843021;29;20053;-70
2022/03/22 03:58:46;;;;;;;19.20;8.02;;;;;;;2.53;52.25;101071.84;4843046;29;20056;-70
2022/03/22 04:01:12;;;;;;;16.50;8.50;;;;;;;2.70;52.17;101076.84;4843241;29;20774;-68
2022/03/22 04:03:39;;;;;;;17.17;7.45;;;;;;;2.90;51.90;101073.84;4844329;29;20056;-69
2022/03/22 04:06:04;;;;;;;15.48;7.10;;;;;;;3.16;51.61;101060.22;4843059;29;20041;-68
2022/03/22 04:08:29;;;;;;;17.13;8.85;;;;;;;3.41;50.59;101065.88;4844350;29;20041;-68
2022/03/22 04:10:53;;;;;;;16.33;8.50;;;;;;;3.70;50.10;101050.34;4844075;29;20470;-69
2022/03/22 04:13:18;;;;;;;13.85;7.90;;;;;;;3.96;49.01;101052.41;4812107;29;20052;-69
2022/03/22 04:15:44;;;;;;;18.17;9.70;;;;;;;4.21;48.11;101050.97;4842856;29;20056;-68
2022/03/22 04:18:09;;;;;;;19.83;9.07;;;;;;;4.51;47.46;101057.31;4842780;29;20048;-67
2022/03/22 04:20:34;;;;;;;18.92;7.50;;;;;;;4.77;45.39;101047.84;4842484;29;20105;-69
2022/03/22 04:22:59;;;;;;;16.60;6.53;;;;;;;5.04;44.86;101049.81;4842457;29;20051;-68
2022/03/22 04:25:24;;;;;;;24.50;9.35;;;;;;;5.29;45.44;101052.66;4843517;29;20061;-68
2022/03/22 04:33:16;;;;;;;13.57;6.15;;;;;;;5.99;43.01;101048.84;4844180;29;20049;-69
2022/03/22 04:35:40;;;;;;;20.17;6.20;;;;;;;6.24;42.17;101045.47;4843454;29;20059;-70
2022/03/22 04:38:06;;;;;;;16.77;7.90;;;;;;;6.43;41.30;101049.28;4842296;29;20064;-69
2022/03/22 04:40:31;;;;;;;13.38;6.03;;;;;;;6.65;41.03;101058.28;4843745;29;20048;-69
2022/03/22 04:42:56;;;;;;;12.93;5.95;;;;;;;6.84;40.37;101046.13;4843884;29;20049;-70
2022/03/22 04:45:21;;;;;;;16.52;6.80;;;;;;;7.09;40.12;101061.19;4843773;29;20189;-69
2022/03/22 04:47:45;;;;;;;16.30;6.65;;;;;;;7.32;39.37;101055.97;4842537;29;20458;-69
2022/03/22 04:50:11;;;;;;;15.50;6.65;;;;;;;7.52;38.74;101050.78;4843865;29;20135;-69
2022/03/22 04:58:03;;;;;;;19.90;6.72;;;;;;;8.07;37.84;101047.84;4843177;29;20135;-68
2022/03/22 05:00:28;;;;;;;23.77;6.80;;;;;;;8.31;37.54;101050.44;4843468;29;20041;-67
2022/03/22 05:02:55;;;;;;;16.42;6.32;;;;;;;8.53;36.50;101041.59;4842160;29;20510;-68
2022/03/22 05:06:25;;;;;;;16.10;6.78;;;;;;;8.80;36.68;101045.81;4843326;29;20052;-69
2022/03/22 05:08:05;;;;;;;23.67;6.47;;;;;;;9.05;35.80;101042.94;4842167;29;20184;-69
2022/03/22 05:10:32;;;;;;;15.60;6.60;;;;;;;9.32;35.29;101043.56;4843243;29;20049;-70
2022/03/22 05:12:57;;;;;;;12.27;6.68;;;;;;;9.48;34.78;101034.78;4842106;29;20044;-71
2022/03/22 05:15:22;;;;;;;19.80;7.15;;;;;;;9.71;34.34;101040.88;4842200;29;20416;-71
2022/03/22 05:17:48;;;;;;;17.25;6.18;;;;;;;9.86;34.02;101036.66;4845803;29;20424;-72
2022/03/22 05:20:15;;;;;;;14.10;5.55;;;;;;;10.04;33.91;101046.47;4843004;29;20124;-70
2022/03/22 05:22:40;;;;;;;11.15;5.22;;;;;;;10.29;33.16;101038.19;4827163;29;20044;-70
2022/03/22 05:25:06;;;;;;;15.05;6.15;;;;;;;10.46;33.09;101030.25;4843968;29;20071;-69
2022/03/22 05:27:31;;;;;;;12.32;5.35;;;;;;;10.58;32.62;101039.47;4843925;29;20044;-68
2022/03/22 05:29:55;;;;;;;14.48;5.50;;;;;;;10.78;32.46;101037.53;4842638;29;20061;-69
2022/03/22 05:32:20;;;;;;;16.10;5.53;;;;;;;11.14;32.14;101037.47;4826581;29;20052;-69
2022/03/22 05:34:45;;;;;;;7.70;4.80;;;;;;;11.47;31.08;101037.50;4845032;29;20064;-69
2022/03/22 05:37:10;;;;;;;17.63;5.90;;;;;;;11.67;30.67;101031.09;4844649;29;20620;-69
2022/03/22 05:39:35;;;;;;;21.58;6.70;;;;;;;11.97;30.46;101041.94;4843148;29;20045;-70
2022/03/22 05:42:00;;;;;;;10.98;5.82;;;;;;;12.37;30.07;101043.28;4841894;29;20044;-70
2022/03/22 05:44:25;;;;;;;10.77;4.85;;;;;;;12.89;28.98;101035.75;4842782;29;20041;-69
2022/03/22 05:46:49;;;;;;;13.30;4.53;;;;;;;13.37;28.46;101041.84;4842905;29;20041;-69
2022/03/22 05:49:14;;;;;;;18.25;4.97;;;;;;;13.90;28.08;101038.50;4842642;29;20053;-69
2022/03/22 05:51:40;;;;;;;14.98;5.07;;;;;;;14.56;27.19;101037.00;4842825;29;20579;-69
2022/03/22 05:54:05;;;;;;;12.88;4.50;;;;;;;15.23;26.22;101036.88;4810642;29;20059;-69
2022/03/22 05:56:30;;;;;;;21.02;5.53;;;;;;;16.00;25.55;101023.44;4842768;29;20497;-68
2022/03/22 05:58:58;;;;;;;9.00;4.97;;;;;;;16.69;24.39;101025.50;4841306;29;20087;-69
2022/03/22 06:01:23;;;;;;;9.98;4.80;;;;;;;17.41;23.43;101031.63;4842647;29;20052;-67
2022/03/22 06:03:48;;;;;;;12.25;5.00;;;;;;;18.01;22.66;101020.56;4843066;29;20049;-67
2022/03/22 06:06:13;;;;;;;9.85;5.43;;;;;;;18.52;22.42;101014.56;4842733;29;20056;-68
2022/03/22 06:08:38;;;;;;;12.00;5.85;;;;;;;19.07;21.80;101021.66;4841936;29;20057;-69
2022/03/22 06:11:02;;;;;;;7.50;4.88;;;;;;;19.45;21.07;101020.19;4844102;29;20595;-68
2022/03/22 06:13:27;;;;;;;11.50;4.47;;;;;;;19.92;20.85;101014.19;4845233;29;20061;-67
2022/03/22 06:15:52;;;;;;;15.23;5.28;;;;;;;20.27;19.95;101019.16;4844985;29;20048;-68
2022/03/22 06:18:17;;;;;;;18.30;4.95;;;;;;;20.74;19.79;101018.56;4844969;29;20520;-70
2022/03/22 06:20:42;;;;;;;9.77;4.75;;;;;;;21.19;19.16;101016.16;4846944;29;20049;-71
2022/03/22 06:23:10;;;;;;;11.10;4.97;;;;;;;21.40;18.72;101010.56;4845068;29;20059;-68
2022/03/22 06:25:36;;;;;;;10.20;4.25;;;;;;;21.92;18.86;101007.25;4846123;29;20116;-69
2022/03/22 06:28:01;;;;;;;12.27;4.70;;;;;;;22.56;18.08;101021.81;4845145;29;20049;-69
2022/03/22 06:30:26;;;;;;;15.43;4.80;;;;;;;23.28;17.56;101013.50;4845908;29;20457;-69
2022/03/22 06:33:00;;;;;;;10.02;4.85;;;;;;;23.30;16.29;101018.78;4846240;29;20049;-69
2022/03/22 06:35:32;;;;;;;10.25;4.75;;;;;;;23.73;16.19;101002.44;4845610;29;20076;-68
2022/03/22 06:37:59;;;;;;;7.93;4.75;;;;;;;23.91;16.16;101006.97;4845961;29;20113;-70
2022/03/22 06:40:28;;;;;;;11.55;4.55;;;;;;;24.16;15.71;101003.31;4845907;29;20681;-70
2022/03/22 06:42:53;;;;;;;9.70;4.40;;;;;;;24.57;15.49;100996.16;4844540;29;20055;-67
2022/03/22 06:45:18;;;;;;;9.00;4.63;;;;;;;25.14;15.36;100998.97;4844659;29;20052;-67
2022/03/22 06:47:44;;;;;;;11.10;5.30;;;;;;;25.71;14.63;101004.41;4845626;29;20087;-66
2022/03/22 06:50:10;;;;;;;11.73;4.82;;;;;;;26.15;14.62;101008.34;4845222;29;20049;-68
2022/03/22 06:52:35;;;;;;;11.65;5.78;;;;;;;26.53;14.42;101005.78;4844083;29;20048;-69
2022/03/22 06:55:02;;;;;;;12.63;5.32;;;;;;;26.71;13.65;100998.16;4845365;29;20072;-69
2022/03/22 06:57:31;;;;;;;8.55;4.80;;;;;;;26.63;13.78;101004.53;4828836;29;20170;-70
2022/03/22 07:00:01;;;;;;;14.80;5.93;;;;;;;26.79;14.08;101005.44;4828788;29;20049;-70
2022/03/22 07:02:26;;;;;;;9.68;4.70;;;;;;;27.00;13.66;100998.31;4845341;29;20071;-70
2022/03/22 07:04:51;;;;;;;9.52;4.53;;;;;;;27.48;13.45;100999.75;4813203;29;20606;-69
2022/03/22 07:07:16;;;;;;;13.70;4.88;;;;;;;27.40;13.07;100993.50;4845221;29;20476;-70
2022/03/22 07:09:42;;;;;;;11.13;5.22;;;;;;;27.41;13.10;100998.81;4828801;29;20479;-70
2022/03/22 07:12:07;;;;;;;11.15;5.47;;;;;;;27.44;12.57;100987.47;4845435;29;20512;-69
2022/03/22 07:14:32;;;;;;;8.63;4.93;;;;;;;27.82;12.43;100990.19;4844522;29;20424;-70
2022/03/22 07:16:56;;;;;;;13.07;5.20;;;;;;;28.25;11.90;100974.75;4845311;29;20053;-68
2022/03/22 07:19:23;;;;;;;11.27;4.82;;;;;;;28.86;11.53;100976.09;4828598;29;20045;-68
2022/03/22 07:21:48;;;;;;;10.25;4.53;;;;;;;29.40;11.00;100971.94;4842589;29;20579;-69
2022/03/22 07:24:15;;;;;;;13.07;4.80;;;;;;;30.31;10.60;100979.91;4844846;29;20104;-70
2022/03/22 07:26:40;;;;;;;8.55;4.63;;;;;;;30.90;9.91;100982.00;4844194;29;20100;-67
2022/03/22 07:29:05;;;;;;;13.73;5.10;;;;;;;31.12;9.63;100977.16;4844695;29;20044;-69
2022/03/22 07:31:30;;;;;;;10.98;5.22;;;;;;;30.89;9.22;100976.69;4843578;29;20041;-69
2022/03/22 07:33:56;;;;;;;7.63;4.43;;;;;;;30.94;9.56;100976.91;4843729;29;20045;-69
2022/03/22 07:36:20;;;;;;;14.10;5.13;;;;;;;31.04;9.45;100975.41;4844769;29;20049;-69
2022/03/22 07:38:46;;;;;;;12.85;4.82;;;;;;;30.70;9.37;100978.34;4844952;29;20053;-68
2022/03/22 07:41:12;;;;;;;7.93;4.50;;;;;;;31.37;9.23;100974.63;4844761;29;20076;-68
2022/03/22 07:43:37;;;;;;;9.65;4.40;;;;;;;31.81;9.03;100973.09;4827456;29;20040;-68
2022/03/22 07:46:02;;;;;;;9.02;4.22;;;;;;;31.98;8.72;100980.66;4842905;29;20044;-70
2022/03/22 07:48:27;;;;;;;8.40;4.93;;;;;;;32.40;8.65;100970.97;4843887;29;20048;-68
2022/03/22 07:53:34;;;;;;;9.73;4.57;;;;;;;33.05;8.51;100970.81;4851621;29;20087;-69
2022/03/22 07:55:59;;;;;;;8.45;4.88;;;;;;;33.26;8.55;100984.25;4862483;29;20067;-69
2022/03/22 07:58:24;;;;;;;10.40;4.63;;;;;;;33.43;8.06;100977.06;4861149;29;20411;-68
2022/03/22 08:00:49;;;;;;;8.85;5.20;;;;;;;33.69;8.36;100977.91;4845756;29;20040;-69
2022/03/22 08:03:15;;;;;;;12.13;5.07;;;;;;;33.57;8.32;100988.88;4861559;29;20060;-69
2022/03/22 08:05:41;;;;;;;13.88;5.70;;;;;;;33.17;8.28;100978.16;4863231;29;20056;-69
2022/03/22 08:08:07;;;;;;;9.43;5.32;;;;;;;33.45;8.47;100976.84;4862293;29;20051;-68
2022/03/22 08:10:32;;;;;;;11.88;5.25;;;;;;;33.87;8.46;100975.16;4862933;29;20059;-71
2022/03/22 08:12:56;;;;;;;10.45;5.55;;;;;;;34.14;8.09;100968.25;4862648;29;20044;-70
2022/03/22 08:15:21;;;;;;;8.80;5.95;;;;;;;34.30;8.41;100968.72;4863308;29;20508;-71
2022/03/22 08:17:46;;;;;;;10.43;5.88;;;;;;;34.03;7.90;100957.94;4866285;29;20033;-70
2022/03/22 08:20:12;;;;;;;11.07;5.05;;;;;;;34.11;8.14;100952.09;4872757;29;20041;-72
2022/03/22 08:22:50;;;;;;;10.40;5.03;;;;;;;35.18;8.02;100960.59;4861876;29;20044;-70
2022/03/22 08:25:16;;;;;;;11.88;4.97;;;;;;;35.81;7.60;100959.91;4861782;29;20073;-68
2022/03/22 08:27:41;;;;;;;15.23;5.85;;;;;;;36.35;7.34;100945.53;4862118;29;20440;-69
2022/03/22 08:30:06;;;;;;;9.50;5.40;;;;;;;36.31;7.45;100946.28;4861918;29;20494;-68
2022/03/22 08:32:31;;;;;;;7.75;5.25;;;;;;;36.72;7.20;100945.16;4861374;29;20496;-67
2022/03/22 08:34:56;;;;;;;8.95;5.93;;;;;;;37.16;7.33;100945.38;4861256;29;20795;-68
2022/03/22 08:37:21;;;;;;;12.20;5.50;;;;;;;37.55;7.08;100955.47;4862056;29;20410;-68
2022/03/22 08:39:45;;;;;;;8.30;5.22;;;;;;;37.83;7.06;100943.34;4845494;29;20040;-67
2022/03/22 08:42:10;;;;;;;9.40;5.90;;;;;;;38.22;6.74;100932.19;4861017;29;20048;-68
2022/03/22 08:44:35;;;;;;;6.85;5.40;;;;;;;38.61;6.69;100936.53;4845853;29;20040;-68
2022/03/22 08:47:01;;;;;;;7.07;5.57;;;;;;;38.74;6.23;100933.31;4848022;29;20620;-68
2022/03/22 08:49:25;;;;;;;9.63;6.28;;;;;;;39.29;6.03;100925.69;4868647;29;20075;-67
2022/03/22 08:51:50;;;;;;;9.80;5.90;;;;;;;39.41;5.91;100912.41;4863086;29;20103;-67
2022/03/22 08:54:17;;;;;;;12.57;5.20;;;;;;;39.12;5.94;100912.78;4860936;29;20044;-68
2022/03/22 08:56:41;;;;;;;7.80;5.10;;;;;;;39.69;6.00;100906.44;4862371;29;20049;-68
2022/03/22 08:59:06;;;;;;;7.55;4.90;;;;;;;39.74;5.52;100905.63;4862607;29;20048;-70
2022/03/22 09:01:31;;;;;;;9.43;6.13;;;;;;;39.13;5.65;100906.09;4862122;29;20515;-69
2022/03/22 09:06:39;;;;;;;6.50;5.50;;;;;;;39.10;5.79;100889.88;4863600;29;20131;-68
2022/03/22 09:09:05;;;;;;;7.35;5.72;;;;;;;39.00;5.76;100892.59;4871651;29;20048;-70
2022/03/22 09:11:29;;;;;;;6.47;5.72;;;;;;;39.66;5.81;100893.03;4855602;29;20051;-70
2022/03/22 09:13:54;;;;;;;14.57;5.70;;;;;;;39.49;5.59;100898.81;4871019;29;20052;-70
2022/03/22 09:16:21;;;;;;;7.70;5.53;;;;;;;39.95;5.79;100878.66;4869795;29;20051;-70
2022/03/22 09:18:46;;;;;;;15.05;6.00;;;;;;;39.42;5.86;100880.63;4863263;29;20041;-70
2022/03/22 09:21:11;;;;;;;6.10;5.50;;;;;;;39.36;5.43;100876.94;4861587;29;20057;-70
2022/03/22 09:23:37;;;;;;;7.70;5.13;;;;;;;39.20;5.61;100872.34;4860247;29;20044;-70
2022/03/22 09:26:02;;;;;;;6.53;5.20;;;;;;;38.65;5.63;100881.09;4860016;29;20209;-68
2022/03/22 09:28:26;;;;;;;7.75;5.03;;;;;;;39.08;5.56;100874.50;4861190;29;20124;-68
2022/03/22 09:30:51;;;;;;;6.32;5.40;;;;;;;39.30;5.29;100877.16;4860845;29;20048;-69
2022/03/22 09:33:17;;;;;;;6.15;5.45;;;;;;;38.56;5.20;100865.97;4860908;29;20181;-68
2022/03/22 09:35:41;;;;;;;9.10;5.22;;;;;;;38.22;5.49;100860.59;4861562;29;20127;-68
2022/03/22 09:38:06;;;;;;;10.45;5.25;;;;;;;37.84;5.69;100869.03;4861689;29;20139;-70
2022/03/22 09:40:31;;;;;;;8.43;5.22;;;;;;;38.07;5.55;100865.97;4862397;29;20099;-69
2022/03/22 09:42:56;;;;;;;10.40;5.32;;;;;;;38.63;5.34;100866.59;4861194;29;20048;-69
2022/03/22 09:45:27;;;;;;;10.50;6.00;;;;;;;38.88;4.95;100861.22;4862319;29;20112;-68
2022/03/22 09:47:52;;;;;;;6.85;5.93;;;;;;;39.07;4.72;100859.72;4862547;29;20055;-71
2022/03/22 09:50:19;;;;;;;5.43;4.85;;;;;;;39.42;4.60;100853.56;4844520;29;20479;-69
2022/03/22 09:52:44;;;;;;;10.07;5.90;;;;;;;39.54;4.61;100850.53;4861301;29;20048;-70
2022/03/22 09:55:11;;;;;;;10.43;5.20;;;;;;;38.61;4.99;100850.13;4844495;29;20044;-69
2022/03/22 09:57:36;;;;;;;5.95;5.43;;;;;;;38.75;4.84;100856.09;4861192;29;20132;-70
2022/03/22 10:00:01;;;;;;;13.88;5.30;;;;;;;38.59;4.75;100849.56;4861236;29;20200;-69
2022/03/22 10:02:36;;;;;;;14.07;7.18;;;;;;;38.45;5.02;100849.13;4861074;29;20044;-69
2022/03/22 10:05:03;;;;;;;6.70;4.90;;;;;;;37.89;4.95;100844.91;4860696;29;20045;-68
2022/03/22 10:07:28;;;;;;;6.68;5.30;;;;;;;38.05;5.17;100845.88;4861070;29;20052;-70
2022/03/22 10:10:06;;;;;;;7.30;5.25;;;;;;;37.58;5.21;100835.31;4860696;29;20036;-69
2022/03/22 10:12:35;;;;;;;15.13;7.30;;;;;;;36.75;5.52;100824.31;4860831;29;20127;-69
2022/03/22 10:15:10;;;;;;;12.80;5.63;;;;;;;36.76;5.40;100828.78;4861517;29;20127;-68
2022/03/22 10:17:35;;;;;;;11.52;5.75;;;;;;;36.02;5.04;100828.78;4862095;29;20059;-70
2022/03/22 10:20:00;;;;;;;9.25;5.30;;;;;;;35.89;5.89;100834.66;4859441;29;20051;-68
2022/03/22 10:22:27;;;;;;;7.90;3.90;;;;;;;35.18;5.65;100830.28;4861059;29;20066;-69
2022/03/22 10:24:57;;;;;;;6.85;3.88;;;;;;;33.16;6.38;100829.97;4859824;29;20053;-68
2022/03/22 10:27:26;;;;;;;9.02;3.78;;;;;;;29.90;7.13;100828.66;4844293;29;20520;-69
2022/03/22 10:29:51;;;;;;;6.32;3.72;;;;;;;26.85;8.50;100824.97;4861727;29;20036;-69
2022/03/22 10:32:16;;;;;;;8.80;3.42;;;;;;;24.78;9.52;100813.78;4861655;29;20103;-69
2022/03/22 10:34:42;;;;;;;4.28;2.75;;;;;;;23.71;10.29;100815.72;4861340;29;20538;-70
2022/03/22 10:37:07;;;;;;;5.15;2.85;;;;;;;22.83;10.66;100816.97;4860452;29;20048;-71
2022/03/22 10:39:39;;;;;;;6.85;2.95;;;;;;;21.88;11.78;100812.22;4861375;29;20048;-69
2022/03/22 10:42:06;;;;;;;8.18;2.72;;;;;;;20.99;11.94;100811.97;4861410;29;20124;-70
2022/03/22 10:44:35;;;;;;;4.43;2.90;;;;;;;20.23;12.51;100803.78;4860759;29;20044;-69
2022/03/22 10:47:02;;;;;;;6.68;2.90;;;;;;;19.25;13.14;100808.31;4854937;29;20044;-69
2022/03/22 10:49:27;;;;;;;5.13;2.78;;;;;;;18.96;13.29;100797.34;4854132;29;20048;-67
2022/03/22 10:51:52;;;;;;;5.70;2.67;;;;;;;18.51;13.49;100791.38;4847633;29;20048;-68
2022/03/22 10:54:20;;;;;;;5.10;2.30;;;;;;;18.23;14.07;100792.91;4847953;29;20055;-68
2022/03/22 10:56:56;;;;;;;4.47;2.83;;;;;;;18.10;14.38;100781.44;4844042;29;20055;-67
2022/03/22 10:59:24;;;;;;;4.25;2.70;;;;;;;17.43;15.16;100785.19;4845922;29;20132;-67
2022/03/22 11:01:50;;;;;;;6.60;3.20;;;;;;;17.09;15.12;100782.66;4844459;29;20045;-66
2022/03/22 11:04:16;;;;;;;4.93;2.83;;;;;;;16.86;15.69;100781.81;4844514;29;20104;-68
2022/03/22 11:06:42;;;;;;;7.63;3.08;;;;;;;16.51;15.83;100787.25;4845630;29;20128;-66
2022/03/22 11:09:07;;;;;;;9.52;3.53;;;;;;;16.33;15.81;100785.00;4845578;29;20049;-66
2022/03/22 11:11:35;;;;;;;7.53;2.80;;;;;;;16.34;16.34;100784.03;4846122;29;20116;-65
2022/03/22 11:14:00;;;;;;;13.27;3.17;;;;;;;16.01;16.52;100766.94;4851856;29;20048;-66
2022/03/22 11:16:28;;;;;;;4.63;2.75;;;;;;;15.72;16.52;100777.19;4851703;29;20135;-67
2022/03/22 11:18:55;;;;;;;13.50;3.05;;;;;;;15.57;17.21;100773.84;4841589;29;20044;-66
2022/03/22 11:21:20;;;;;;;6.35;3.42;;;;;;;15.22;16.94;100776.41;4853784;29;20500;-65
2022/03/22 11:23:47;;;;;;;5.35;2.17;;;;;;;15.15;17.25;100772.41;4813277;29;20055;-69
2022/03/22 11:26:17;;;;;;;2.20;1.98;;;;;;;15.05;17.62;100769.53;4850461;29;20486;-67
2022/03/22 11:28:43;;;;;;;6.38;2.30;;;;;;;14.95;17.34;100770.31;4865466;29;20052;-68
2022/03/22 11:31:13;;;;;;;3.17;2.17;;;;;;;14.88;17.54;100762.72;4863830;29;20104;-67
2022/03/22 11:36:27;;;;;;;8.00;2.60;;;;;;;14.59;18.68;100761.22;4853742;29;20045;-67
2022/03/22 11:38:54;;;;;;;3.05;2.15;;;;;;;14.56;17.96;100758.75;4853030;29;20424;-67
2022/03/22 11:44:16;;;;;;;4.22;3.05;;;;;;;14.30;18.81;100757.88;4846687;29;20045;-68
2022/03/22 11:46:42;;;;;;;4.75;2.63;;;;;;;14.18;18.58;100761.38;4864823;29;20048;-67
2022/03/22 11:49:12;;;;;;;3.67;2.30;;;;;;;14.28;19.15;100759.78;4865164;29;20068;-67
2022/03/22 11:51:56;;;;;;;5.07;2.65;;;;;;;14.26;19.64;100755.47;4864498;29;20506;-68